sensor_id;sensor_type;location;lat;lon;timestamp;temperature;humidity
71942;DHT22;59997;53.300;-6.260;2024-03-02T00:01:11;3.56;89.78
71942;DHT22;59997;53.300;-6.260;2024-03-02T00:03:38;3.59;89.56
71942;DHT22;59997;53.300;-6.260;2024-03-02T00:06:04;3.52;89.68
71942;DHT22;59997;53.300;-6.260;2024-03-02T00:08:29;3.48;89.87
71942;DHT22;59997;53.300;-6.260;2024-03-02T00:10:59;3.46;89.84
71942;DHT22;59997;53.300;-6.260;2024-03-02T00:13:25;3.39;89.85
71942;DHT22;59997;53.300;-6.260;2024-03-02T00:15:55;3.44;89.75
71942;DHT22;59997;53.300;-6.260;2024-03-02T00:18:26;3.41;89.91
71942;DHT22;59997;53.300;-6.260;2024-03-02T00:20:53;3.41;89.80
71942;DHT22;59997;53.300;-6.260;2024-03-02T00:23:20;3.32;89.86
71942;DHT22;59997;53.300;-6.260;2024-03-02T00:25:49;3.30;89.73
71942;DHT22;59997;53.300;-6.260;2024-03-02T00:28:17;3.34;89.83
71942;DHT22;59997;53.300;-6.260;2024-03-02T00:30:50;3.31;89.56
71942;DHT22;59997;53.300;-6.260;2024-03-02T00:33:16;3.34;89.46
71942;DHT22;59997;53.300;-6.260;2024-03-02T00:35:44;3.31;89.48
71942;DHT22;59997;53.300;-6.260;2024-03-02T00:38:10;3.23;89.76
71942;DHT22;59997;53.300;-6.260;2024-03-02T00:40:35;3.24;89.56
71942;DHT22;59997;53.300;-6.260;2024-03-02T00:43:02;3.18;89.61
71942;DHT22;59997;53.300;-6.260;2024-03-02T00:45:28;3.18;89.59
71942;DHT22;59997;53.300;-6.260;2024-03-02T00:47:54;3.16;89.74
71942;DHT22;59997;53.300;-6.260;2024-03-02T00:50:20;3.20;89.74
71942;DHT22;59997;53.300;-6.260;2024-03-02T00:52:46;3.24;89.09
71942;DHT22;59997;53.300;-6.260;2024-03-02T00:55:14;3.16;89.43
71942;DHT22;59997;53.300;-6.260;2024-03-02T00:57:39;3.10;89.54
71942;DHT22;59997;53.300;-6.260;2024-03-02T01:00:06;3.06;89.75
71942;DHT22;59997;53.300;-6.260;2024-03-02T01:02:35;3.07;89.67
71942;DHT22;59997;53.300;-6.260;2024-03-02T01:05:00;3.11;89.36
71942;DHT22;59997;53.300;-6.260;2024-03-02T01:07:26;3.11;89.30
71942;DHT22;59997;53.300;-6.260;2024-03-02T01:09:51;3.20;89.14
71942;DHT22;59997;53.300;-6.260;2024-03-02T01:12:17;3.17;89.21
71942;DHT22;59997;53.300;-6.260;2024-03-02T01:14:42;3.14;89.36
71942;DHT22;59997;53.300;-6.260;2024-03-02T01:17:08;3.18;89.08
71942;DHT22;59997;53.300;-6.260;2024-03-02T01:19:33;3.14;89.30
71942;DHT22;59997;53.300;-6.260;2024-03-02T01:21:59;3.18;89.14
71942;DHT22;59997;53.300;-6.260;2024-03-02T01:24:25;3.23;89.14
71942;DHT22;59997;53.300;-6.260;2024-03-02T01:26:50;3.18;89.11
71942;DHT22;59997;53.300;-6.260;2024-03-02T01:29:16;3.10;89.38
71942;DHT22;59997;53.300;-6.260;2024-03-02T01:31:41;3.10;89.50
71942;DHT22;59997;53.300;-6.260;2024-03-02T01:34:10;3.07;89.44
71942;DHT22;59997;53.300;-6.260;2024-03-02T01:36:36;3.04;89.64
71942;DHT22;59997;53.300;-6.260;2024-03-02T01:39:02;3.03;89.44
71942;DHT22;59997;53.300;-6.260;2024-03-02T01:41:28;2.96;89.54
71942;DHT22;59997;53.300;-6.260;2024-03-02T01:43:53;2.97;89.55
71942;DHT22;59997;53.300;-6.260;2024-03-02T01:46:19;3.07;89.44
71942;DHT22;59997;53.300;-6.260;2024-03-02T01:48:44;3.10;89.13
71942;DHT22;59997;53.300;-6.260;2024-03-02T01:51:10;3.04;89.33
71942;DHT22;59997;53.300;-6.260;2024-03-02T01:53:36;3.13;89.14
71942;DHT22;59997;53.300;-6.260;2024-03-02T01:56:02;3.10;89.09
71942;DHT22;59997;53.300;-6.260;2024-03-02T01:58:27;3.00;89.50
71942;DHT22;59997;53.300;-6.260;2024-03-02T02:00:53;2.96;89.62
71942;DHT22;59997;53.300;-6.260;2024-03-02T02:03:19;2.99;89.48
71942;DHT22;59997;53.300;-6.260;2024-03-02T02:05:45;2.85;89.71
71942;DHT22;59997;53.300;-6.260;2024-03-02T02:08:12;2.91;89.57
71942;DHT22;59997;53.300;-6.260;2024-03-02T02:10:38;2.82;89.75
71942;DHT22;59997;53.300;-6.260;2024-03-02T02:13:04;2.92;89.50
71942;DHT22;59997;53.300;-6.260;2024-03-02T02:15:30;2.85;89.46
71942;DHT22;59997;53.300;-6.260;2024-03-02T02:17:57;2.93;89.31
71942;DHT22;59997;53.300;-6.260;2024-03-02T02:20:23;2.96;89.16
71942;DHT22;59997;53.300;-6.260;2024-03-02T02:23:02;2.96;89.10
71942;DHT22;59997;53.300;-6.260;2024-03-02T02:25:28;2.97;89.18
71942;DHT22;59997;53.300;-6.260;2024-03-02T02:27:55;2.91;89.36
71942;DHT22;59997;53.300;-6.260;2024-03-02T02:30:23;2.89;89.41
71942;DHT22;59997;53.300;-6.260;2024-03-02T02:32:49;2.81;89.57
71942;DHT22;59997;53.300;-6.260;2024-03-02T02:35:14;2.74;89.77
71942;DHT22;59997;53.300;-6.260;2024-03-02T02:37:40;2.61;89.98
71942;DHT22;59997;53.300;-6.260;2024-03-02T02:40:07;2.47;90.17
71942;DHT22;59997;53.300;-6.260;2024-03-02T02:42:32;2.42;90.29
71942;DHT22;59997;53.300;-6.260;2024-03-02T02:44:58;2.17;90.47
71942;DHT22;59997;53.300;-6.260;2024-03-02T02:47:23;1.96;90.44
71942;DHT22;59997;53.300;-6.260;2024-03-02T02:49:49;1.79;90.44
71942;DHT22;59997;53.300;-6.260;2024-03-02T02:52:14;1.58;90.49
71942;DHT22;59997;53.300;-6.260;2024-03-02T02:54:40;1.57;90.59
71942;DHT22;59997;53.300;-6.260;2024-03-02T02:57:06;1.51;90.55
71942;DHT22;59997;53.300;-6.260;2024-03-02T02:59:31;1.63;90.62
71942;DHT22;59997;53.300;-6.260;2024-03-02T03:01:56;1.50;90.55
71942;DHT22;59997;53.300;-6.260;2024-03-02T03:04:22;1.51;90.70
71942;DHT22;59997;53.300;-6.260;2024-03-02T03:06:47;1.57;90.71
71942;DHT22;59997;53.300;-6.260;2024-03-02T03:09:13;1.71;90.73
71942;DHT22;59997;53.300;-6.260;2024-03-02T03:11:38;1.65;90.65
71942;DHT22;59997;53.300;-6.260;2024-03-02T03:14:04;1.77;90.63
71942;DHT22;59997;53.300;-6.260;2024-03-02T03:16:30;1.85;90.47
71942;DHT22;59997;53.300;-6.260;2024-03-02T03:18:55;1.81;90.42
71942;DHT22;59997;53.300;-6.260;2024-03-02T03:21:21;1.74;90.34
71942;DHT22;59997;53.300;-6.260;2024-03-02T03:23:47;1.75;90.52
71942;DHT22;59997;53.300;-6.260;2024-03-02T03:26:12;1.94;90.37
71942;DHT22;59997;53.300;-6.260;2024-03-02T03:28:38;2.05;90.14
71942;DHT22;59997;53.300;-6.260;2024-03-02T03:31:04;2.07;90.07
71942;DHT22;59997;53.300;-6.260;2024-03-02T03:33:29;2.02;90.03
71942;DHT22;59997;53.300;-6.260;2024-03-02T03:35:55;2.07;89.97
71942;DHT22;59997;53.300;-6.260;2024-03-02T03:38:20;1.98;90.04
71942;DHT22;59997;53.300;-6.260;2024-03-02T03:40:46;1.75;90.17
71942;DHT22;59997;53.300;-6.260;2024-03-02T03:43:12;1.79;90.28
71942;DHT22;59997;53.300;-6.260;2024-03-02T03:45:38;1.61;90.34
71942;DHT22;59997;53.300;-6.260;2024-03-02T03:48:04;1.44;90.49
71942;DHT22;59997;53.300;-6.260;2024-03-02T03:50:29;1.36;90.72
71942;DHT22;59997;53.300;-6.260;2024-03-02T03:52:55;1.22;90.89
71942;DHT22;59997;53.300;-6.260;2024-03-02T03:55:20;1.15;91.01
71942;DHT22;59997;53.300;-6.260;2024-03-02T03:57:46;1.30;91.16
71942;DHT22;59997;53.300;-6.260;2024-03-02T04:00:12;1.37;91.17
71942;DHT22;59997;53.300;-6.260;2024-03-02T04:02:38;1.29;91.17
71942;DHT22;59997;53.300;-6.260;2024-03-02T04:05:04;1.36;91.29
71942;DHT22;59997;53.300;-6.260;2024-03-02T04:07:35;1.44;91.19
71942;DHT22;59997;53.300;-6.260;2024-03-02T04:10:06;1.44;91.11
71942;DHT22;59997;53.300;-6.260;2024-03-02T04:12:33;1.44;91.03
71942;DHT22;59997;53.300;-6.260;2024-03-02T04:14:59;1.51;91.10
71942;DHT22;59997;53.300;-6.260;2024-03-02T04:17:24;1.51;90.93
71942;DHT22;59997;53.300;-6.260;2024-03-02T04:19:50;1.55;90.93
71942;DHT22;59997;53.300;-6.260;2024-03-02T04:22:15;1.60;90.91
71942;DHT22;59997;53.300;-6.260;2024-03-02T04:24:41;1.67;90.75
71942;DHT22;59997;53.300;-6.260;2024-03-02T04:27:07;1.65;90.64
71942;DHT22;59997;53.300;-6.260;2024-03-02T04:29:32;1.78;90.55
71942;DHT22;59997;53.300;-6.260;2024-03-02T04:31:58;1.72;90.47
71942;DHT22;59997;53.300;-6.260;2024-03-02T04:34:23;1.83;90.42
71942;DHT22;59997;53.300;-6.260;2024-03-02T04:36:49;1.81;90.43
71942;DHT22;59997;53.300;-6.260;2024-03-02T04:39:15;1.82;90.42
71942;DHT22;59997;53.300;-6.260;2024-03-02T04:41:41;1.79;90.39
71942;DHT22;59997;53.300;-6.260;2024-03-02T04:44:06;1.86;90.39
71942;DHT22;59997;53.300;-6.260;2024-03-02T04:46:33;1.85;90.30
71942;DHT22;59997;53.300;-6.260;2024-03-02T04:49:00;1.65;90.40
71942;DHT22;59997;53.300;-6.260;2024-03-02T04:51:25;1.43;90.57
71942;DHT22;59997;53.300;-6.260;2024-03-02T04:53:51;1.30;90.77
71942;DHT22;59997;53.300;-6.260;2024-03-02T04:56:16;1.08;90.92
71942;DHT22;59997;53.300;-6.260;2024-03-02T04:59:04;0.91;91.13
71942;DHT22;59997;53.300;-6.260;2024-03-02T05:01:29;0.83;91.55
71942;DHT22;59997;53.300;-6.260;2024-03-02T05:03:55;0.85;91.74
71942;DHT22;59997;53.300;-6.260;2024-03-02T05:06:21;0.88;91.93
71942;DHT22;59997;53.300;-6.260;2024-03-02T05:08:48;0.85;92.03
71942;DHT22;59997;53.300;-6.260;2024-03-02T05:11:13;0.83;92.09
71942;DHT22;59997;53.300;-6.260;2024-03-02T05:14:02;0.89;92.13
71942;DHT22;59997;53.300;-6.260;2024-03-02T05:16:27;0.85;92.07
71942;DHT22;59997;53.300;-6.260;2024-03-02T05:18:53;0.87;92.13
71942;DHT22;59997;53.300;-6.260;2024-03-02T05:21:19;0.83;92.17
71942;DHT22;59997;53.300;-6.260;2024-03-02T05:23:45;0.81;92.21
71942;DHT22;59997;53.300;-6.260;2024-03-02T05:26:10;0.70;92.21
71942;DHT22;59997;53.300;-6.260;2024-03-02T05:28:39;0.73;92.27
71942;DHT22;59997;53.300;-6.260;2024-03-02T05:31:05;0.81;92.34
71942;DHT22;59997;53.300;-6.260;2024-03-02T05:33:30;0.76;92.40
71942;DHT22;59997;53.300;-6.260;2024-03-02T05:35:58;0.76;92.35
71942;DHT22;59997;53.300;-6.260;2024-03-02T05:38:23;0.85;92.43
71942;DHT22;59997;53.300;-6.260;2024-03-02T05:40:49;0.87;92.43
71942;DHT22;59997;53.300;-6.260;2024-03-02T05:43:14;0.68;92.37
71942;DHT22;59997;53.300;-6.260;2024-03-02T05:45:40;0.60;92.45
71942;DHT22;59997;53.300;-6.260;2024-03-02T05:48:07;0.73;92.50
71942;DHT22;59997;53.300;-6.260;2024-03-02T05:50:33;0.76;92.53
71942;DHT22;59997;53.300;-6.260;2024-03-02T05:52:58;0.67;92.56
71942;DHT22;59997;53.300;-6.260;2024-03-02T05:55:24;0.67;92.64
71942;DHT22;59997;53.300;-6.260;2024-03-02T05:57:50;0.57;92.76
71942;DHT22;59997;53.300;-6.260;2024-03-02T06:00:43;0.71;92.78
71942;DHT22;59997;53.300;-6.260;2024-03-02T06:03:08;0.78;92.89
71942;DHT22;59997;53.300;-6.260;2024-03-02T06:05:34;0.84;92.88
71942;DHT22;59997;53.300;-6.260;2024-03-02T06:08:00;0.84;92.84
71942;DHT22;59997;53.300;-6.260;2024-03-02T06:10:25;0.77;92.83
71942;DHT22;59997;53.300;-6.260;2024-03-02T06:12:51;0.83;92.86
71942;DHT22;59997;53.300;-6.260;2024-03-02T06:15:16;0.84;92.95
71942;DHT22;59997;53.300;-6.260;2024-03-02T06:17:42;0.73;92.94
71942;DHT22;59997;53.300;-6.260;2024-03-02T06:20:08;0.91;93.00
71942;DHT22;59997;53.300;-6.260;2024-03-02T06:22:34;0.92;92.99
71942;DHT22;59997;53.300;-6.260;2024-03-02T06:25:00;0.91;92.95
71942;DHT22;59997;53.300;-6.260;2024-03-02T06:27:25;0.99;92.91
71942;DHT22;59997;53.300;-6.260;2024-03-02T06:29:51;0.81;92.86
71942;DHT22;59997;53.300;-6.260;2024-03-02T06:32:17;0.84;92.90
71942;DHT22;59997;53.300;-6.260;2024-03-02T06:34:42;0.87;92.97
71942;DHT22;59997;53.300;-6.260;2024-03-02T06:37:08;0.76;92.91
71942;DHT22;59997;53.300;-6.260;2024-03-02T06:39:34;0.68;92.94
71942;DHT22;59997;53.300;-6.260;2024-03-02T06:42:00;0.64;92.97
71942;DHT22;59997;53.300;-6.260;2024-03-02T06:44:26;0.63;93.02
71942;DHT22;59997;53.300;-6.260;2024-03-02T06:46:51;0.78;93.10
71942;DHT22;59997;53.300;-6.260;2024-03-02T06:49:17;0.68;93.00
71942;DHT22;59997;53.300;-6.260;2024-03-02T06:51:44;0.60;93.00
71942;DHT22;59997;53.300;-6.260;2024-03-02T06:54:09;0.68;93.01
71942;DHT22;59997;53.300;-6.260;2024-03-02T06:56:35;0.78;93.04
71942;DHT22;59997;53.300;-6.260;2024-03-02T06:59:00;0.76;92.99
71942;DHT22;59997;53.300;-6.260;2024-03-02T07:01:26;0.66;92.94
71942;DHT22;59997;53.300;-6.260;2024-03-02T07:03:53;0.54;92.93
71942;DHT22;59997;53.300;-6.260;2024-03-02T07:06:19;0.45;92.96
71942;DHT22;59997;53.300;-6.260;2024-03-02T07:08:44;0.33;92.99
71942;DHT22;59997;53.300;-6.260;2024-03-02T07:11:10;0.43;93.07
71942;DHT22;59997;53.300;-6.260;2024-03-02T07:13:35;0.49;93.13
71942;DHT22;59997;53.300;-6.260;2024-03-02T07:16:01;0.57;93.19
71942;DHT22;59997;53.300;-6.260;2024-03-02T07:18:26;0.67;93.20
71942;DHT22;59997;53.300;-6.260;2024-03-02T07:20:52;0.70;93.21
71942;DHT22;59997;53.300;-6.260;2024-03-02T07:23:18;0.85;93.17
71942;DHT22;59997;53.300;-6.260;2024-03-02T07:25:44;0.87;93.02
71942;DHT22;59997;53.300;-6.260;2024-03-02T07:28:10;0.81;92.96
71942;DHT22;59997;53.300;-6.260;2024-03-02T07:30:35;0.89;92.91
71942;DHT22;59997;53.300;-6.260;2024-03-02T07:33:04;1.03;92.88
71942;DHT22;59997;53.300;-6.260;2024-03-02T07:35:29;0.92;92.80
71942;DHT22;59997;53.300;-6.260;2024-03-02T07:37:57;0.91;92.75
71942;DHT22;59997;53.300;-6.260;2024-03-02T07:40:23;1.02;92.79
71942;DHT22;59997;53.300;-6.260;2024-03-02T07:42:48;1.12;92.73
71942;DHT22;59997;53.300;-6.260;2024-03-02T07:45:14;1.18;92.68
71942;DHT22;59997;53.300;-6.260;2024-03-02T07:47:40;1.30;92.59
71942;DHT22;59997;53.300;-6.260;2024-03-02T07:50:06;1.47;92.43
71942;DHT22;59997;53.300;-6.260;2024-03-02T07:52:32;1.55;92.27
71942;DHT22;59997;53.300;-6.260;2024-03-02T07:54:58;1.55;92.11
71942;DHT22;59997;53.300;-6.260;2024-03-02T07:57:24;1.53;92.02
71942;DHT22;59997;53.300;-6.260;2024-03-02T07:59:49;1.64;91.91
71942;DHT22;59997;53.300;-6.260;2024-03-02T08:02:15;1.63;91.83
71942;DHT22;59997;53.300;-6.260;2024-03-02T08:04:41;1.72;91.73
71942;DHT22;59997;53.300;-6.260;2024-03-02T08:07:06;1.75;91.63
71942;DHT22;59997;53.300;-6.260;2024-03-02T08:09:32;1.98;91.38
71942;DHT22;59997;53.300;-6.260;2024-03-02T08:11:57;2.13;91.17
71942;DHT22;59997;53.300;-6.260;2024-03-02T08:14:23;2.20;90.87
71942;DHT22;59997;53.300;-6.260;2024-03-02T08:16:49;2.22;90.76
71942;DHT22;59997;53.300;-6.260;2024-03-02T08:19:15;2.27;90.51
71942;DHT22;59997;53.300;-6.260;2024-03-02T08:21:41;2.31;90.39
71942;DHT22;59997;53.300;-6.260;2024-03-02T08:24:07;2.42;90.33
71942;DHT22;59997;53.300;-6.260;2024-03-02T08:26:33;2.42;90.31
71942;DHT22;59997;53.300;-6.260;2024-03-02T08:28:59;2.55;90.35
71942;DHT22;59997;53.300;-6.260;2024-03-02T08:31:27;2.66;90.09
71942;DHT22;59997;53.300;-6.260;2024-03-02T08:33:52;2.74;90.01
71942;DHT22;59997;53.300;-6.260;2024-03-02T08:36:18;2.92;89.90
71942;DHT22;59997;53.300;-6.260;2024-03-02T08:38:44;3.14;89.77
71942;DHT22;59997;53.300;-6.260;2024-03-02T08:41:10;3.38;89.57
71942;DHT22;59997;53.300;-6.260;2024-03-02T08:43:38;3.83;89.12
71942;DHT22;59997;53.300;-6.260;2024-03-02T08:46:05;4.20;88.50
71942;DHT22;59997;53.300;-6.260;2024-03-02T08:48:30;4.49;87.90
71942;DHT22;59997;53.300;-6.260;2024-03-02T08:50:56;4.81;87.09
71942;DHT22;59997;53.300;-6.260;2024-03-02T08:53:21;4.79;86.81
71942;DHT22;59997;53.300;-6.260;2024-03-02T08:55:47;4.81;86.93
71942;DHT22;59997;53.300;-6.260;2024-03-02T08:58:13;4.72;86.89
71942;DHT22;59997;53.300;-6.260;2024-03-02T09:00:38;5.28;86.09
71942;DHT22;59997;53.300;-6.260;2024-03-02T09:03:04;5.50;85.33
71942;DHT22;59997;53.300;-6.260;2024-03-02T09:05:30;5.73;84.87
71942;DHT22;59997;53.300;-6.260;2024-03-02T09:07:55;6.01;84.26
71942;DHT22;59997;53.300;-6.260;2024-03-02T09:10:21;6.46;83.11
71942;DHT22;59997;53.300;-6.260;2024-03-02T09:12:46;6.28;82.80
71942;DHT22;59997;53.300;-6.260;2024-03-02T09:15:12;5.77;84.24
71942;DHT22;59997;53.300;-6.260;2024-03-02T09:17:37;5.56;84.32
71942;DHT22;59997;53.300;-6.260;2024-03-02T09:20:05;5.95;84.56
71942;DHT22;59997;53.300;-6.260;2024-03-02T09:22:30;5.93;83.89
71942;DHT22;59997;53.300;-6.260;2024-03-02T09:24:58;6.22;83.27
71942;DHT22;59997;53.300;-6.260;2024-03-02T09:27:24;6.02;83.92
71942;DHT22;59997;53.300;-6.260;2024-03-02T09:29:49;5.74;83.55
71942;DHT22;59997;53.300;-6.260;2024-03-02T09:32:15;6.02;84.08
71942;DHT22;59997;53.300;-6.260;2024-03-02T09:34:41;5.40;84.68
71942;DHT22;59997;53.300;-6.260;2024-03-02T09:37:06;6.06;83.63
71942;DHT22;59997;53.300;-6.260;2024-03-02T09:39:33;5.83;84.08
71942;DHT22;59997;53.300;-6.260;2024-03-02T09:41:59;5.60;84.56
71942;DHT22;59997;53.300;-6.260;2024-03-02T09:44:25;5.54;84.73
71942;DHT22;59997;53.300;-6.260;2024-03-02T09:46:52;6.15;84.33
71942;DHT22;59997;53.300;-6.260;2024-03-02T09:49:17;5.83;83.74
71942;DHT22;59997;53.300;-6.260;2024-03-02T09:51:49;5.49;84.69
71942;DHT22;59997;53.300;-6.260;2024-03-02T09:54:17;5.36;85.62
71942;DHT22;59997;53.300;-6.260;2024-03-02T09:56:44;5.53;85.46
71942;DHT22;59997;53.300;-6.260;2024-03-02T09:59:10;5.33;85.46
71942;DHT22;59997;53.300;-6.260;2024-03-02T10:01:35;5.40;85.45
71942;DHT22;59997;53.300;-6.260;2024-03-02T10:04:01;5.54;85.90
71942;DHT22;59997;53.300;-6.260;2024-03-02T10:06:28;5.24;85.19
71942;DHT22;59997;53.300;-6.260;2024-03-02T10:08:54;6.15;84.68
71942;DHT22;59997;53.300;-6.260;2024-03-02T10:14:09;6.30;82.61
71942;DHT22;59997;53.300;-6.260;2024-03-02T10:16:36;6.57;81.96
71942;DHT22;59997;53.300;-6.260;2024-03-02T10:19:19;6.46;81.75
71942;DHT22;59997;53.300;-6.260;2024-03-02T10:21:49;6.65;82.19
71942;DHT22;59997;53.300;-6.260;2024-03-02T10:24:16;6.20;82.27
71942;DHT22;59997;53.300;-6.260;2024-03-02T10:26:41;7.22;81.10
71942;DHT22;59997;53.300;-6.260;2024-03-02T10:29:09;6.41;81.89
71942;DHT22;59997;53.300;-6.260;2024-03-02T10:31:37;6.02;83.18
71942;DHT22;59997;53.300;-6.260;2024-03-02T10:34:02;5.85;84.07
71942;DHT22;59997;53.300;-6.260;2024-03-02T10:36:29;6.06;84.06
71942;DHT22;59997;53.300;-6.260;2024-03-02T10:38:56;5.70;83.96
71942;DHT22;59997;53.300;-6.260;2024-03-02T10:41:26;5.87;84.63
71942;DHT22;59997;53.300;-6.260;2024-03-02T10:43:53;6.04;83.74
71942;DHT22;59997;53.300;-6.260;2024-03-02T10:46:28;5.93;83.88
71942;DHT22;59997;53.300;-6.260;2024-03-02T10:48:57;5.88;83.98
71942;DHT22;59997;53.300;-6.260;2024-03-02T10:51:29;5.85;84.54
71942;DHT22;59997;53.300;-6.260;2024-03-02T10:54:00;5.75;84.44
71942;DHT22;59997;53.300;-6.260;2024-03-02T10:56:34;5.90;84.02
71942;DHT22;59997;53.300;-6.260;2024-03-02T10:59:22;5.77;84.11
71942;DHT22;59997;53.300;-6.260;2024-03-02T11:01:50;5.91;84.17
71942;DHT22;59997;53.300;-6.260;2024-03-02T11:04:17;6.43;82.31
71942;DHT22;59997;53.300;-6.260;2024-03-02T11:06:50;7.27;81.89
71942;DHT22;59997;53.300;-6.260;2024-03-02T11:09:19;6.96;80.97
71942;DHT22;59997;53.300;-6.260;2024-03-02T11:11:49;7.06;80.15
71942;DHT22;59997;53.300;-6.260;2024-03-02T11:14:24;7.28;79.31
71942;DHT22;59997;53.300;-6.260;2024-03-02T11:16:51;7.62;77.43
71942;DHT22;59997;53.300;-6.260;2024-03-02T11:19:18;8.27;76.91
71942;DHT22;59997;53.300;-6.260;2024-03-02T11:21:44;7.87;77.36
71942;DHT22;59997;53.300;-6.260;2024-03-02T11:26:58;7.40;79.52
71942;DHT22;59997;53.300;-6.260;2024-03-02T11:29:53;7.38;78.96
71942;DHT22;59997;53.300;-6.260;2024-03-02T11:32:22;7.09;79.91
71942;DHT22;59997;53.300;-6.260;2024-03-02T11:34:51;7.69;79.05
71942;DHT22;59997;53.300;-6.260;2024-03-02T11:37:18;8.03;77.48
71942;DHT22;59997;53.300;-6.260;2024-03-02T11:39:46;7.35;78.85
71942;DHT22;59997;53.300;-6.260;2024-03-02T11:42:12;7.16;80.72
71942;DHT22;59997;53.300;-6.260;2024-03-02T11:44:48;7.20;79.43
71942;DHT22;59997;53.300;-6.260;2024-03-02T11:47:17;6.88;80.16
71942;DHT22;59997;53.300;-6.260;2024-03-02T11:49:50;7.64;78.34
71942;DHT22;59997;53.300;-6.260;2024-03-02T11:52:17;7.23;78.96
71942;DHT22;59997;53.300;-6.260;2024-03-02T11:54:47;6.88;80.51
71942;DHT22;59997;53.300;-6.260;2024-03-02T11:57:15;7.16;81.15
71942;DHT22;59997;53.300;-6.260;2024-03-02T11:59:42;7.69;78.39
71942;DHT22;59997;53.300;-6.260;2024-03-02T12:02:15;7.81;77.04
71942;DHT22;59997;53.300;-6.260;2024-03-02T12:04:41;6.67;79.62
71942;DHT22;59997;53.300;-6.260;2024-03-02T12:07:08;7.43;78.22
71942;DHT22;59997;53.300;-6.260;2024-03-02T12:09:34;8.11;78.39
71942;DHT22;59997;53.300;-6.260;2024-03-02T12:12:07;8.16;77.47
71942;DHT22;59997;53.300;-6.260;2024-03-02T12:14:35;8.30;77.06
71942;DHT22;59997;53.300;-6.260;2024-03-02T12:17:01;8.07;76.99
71942;DHT22;59997;53.300;-6.260;2024-03-02T12:19:28;8.06;76.30
71942;DHT22;59997;53.300;-6.260;2024-03-02T12:21:59;7.31;78.01
71942;DHT22;59997;53.300;-6.260;2024-03-02T12:24:27;7.67;77.24
71942;DHT22;59997;53.300;-6.260;2024-03-02T12:26:53;7.82;78.30
71942;DHT22;59997;53.300;-6.260;2024-03-02T12:29:20;7.50;77.43
71942;DHT22;59997;53.300;-6.260;2024-03-02T12:31:50;7.41;78.78
71942;DHT22;59997;53.300;-6.260;2024-03-02T12:34:18;7.78;78.82
71942;DHT22;59997;53.300;-6.260;2024-03-02T12:36:45;7.52;78.50
71942;DHT22;59997;53.300;-6.260;2024-03-02T12:39:13;7.28;78.06
71942;DHT22;59997;53.300;-6.260;2024-03-02T12:41:39;7.12;79.44
71942;DHT22;59997;53.300;-6.260;2024-03-02T12:44:08;7.10;79.96
71942;DHT22;59997;53.300;-6.260;2024-03-02T12:46:33;7.05;79.80
71942;DHT22;59997;53.300;-6.260;2024-03-02T12:49:07;6.92;80.47
71942;DHT22;59997;53.300;-6.260;2024-03-02T12:51:33;6.74;80.61
71942;DHT22;59997;53.300;-6.260;2024-03-02T12:53:59;7.03;80.31
71942;DHT22;59997;53.300;-6.260;2024-03-02T12:56:25;6.67;80.11
71942;DHT22;59997;53.300;-6.260;2024-03-02T12:58:56;6.57;80.29
71942;DHT22;59997;53.300;-6.260;2024-03-02T13:01:22;7.41;78.56
71942;DHT22;59997;53.300;-6.260;2024-03-02T13:03:49;7.61;79.04
71942;DHT22;59997;53.300;-6.260;2024-03-02T13:06:18;8.30;76.91
71942;DHT22;59997;53.300;-6.260;2024-03-02T13:08:45;8.38;75.99
71942;DHT22;59997;53.300;-6.260;2024-03-02T13:11:10;7.99;75.88
71942;DHT22;59997;53.300;-6.260;2024-03-02T13:13:36;7.89;76.66
71942;DHT22;59997;53.300;-6.260;2024-03-02T13:16:07;7.75;78.01
71942;DHT22;59997;53.300;-6.260;2024-03-02T13:18:33;7.65;77.74
71942;DHT22;59997;53.300;-6.260;2024-03-02T13:20:59;7.38;78.67
71942;DHT22;59997;53.300;-6.260;2024-03-02T13:23:25;7.15;79.58
71942;DHT22;59997;53.300;-6.260;2024-03-02T13:25:51;7.75;79.88
71942;DHT22;59997;53.300;-6.260;2024-03-02T13:28:16;7.67;79.13
71942;DHT22;59997;53.300;-6.260;2024-03-02T13:30:42;7.58;79.48
71942;DHT22;59997;53.300;-6.260;2024-03-02T13:33:08;7.44;78.45
71942;DHT22;59997;53.300;-6.260;2024-03-02T13:35:33;7.52;78.74
71942;DHT22;59997;53.300;-6.260;2024-03-02T13:37:59;8.04;76.65
71942;DHT22;59997;53.300;-6.260;2024-03-02T13:40:24;8.17;75.43
71942;DHT22;59997;53.300;-6.260;2024-03-02T13:42:50;8.16;75.64
71942;DHT22;59997;53.300;-6.260;2024-03-02T13:45:17;7.58;77.54
71942;DHT22;59997;53.300;-6.260;2024-03-02T13:47:43;7.67;75.84
71942;DHT22;59997;53.300;-6.260;2024-03-02T13:50:09;7.79;75.18
71942;DHT22;59997;53.300;-6.260;2024-03-02T13:52:35;7.67;75.48
71942;DHT22;59997;53.300;-6.260;2024-03-02T13:55:00;7.44;76.04
71942;DHT22;59997;53.300;-6.260;2024-03-02T13:57:26;7.46;76.02
71942;DHT22;59997;53.300;-6.260;2024-03-02T13:59:53;7.96;76.21
71942;DHT22;59997;53.300;-6.260;2024-03-02T14:02:20;8.16;75.90
71942;DHT22;59997;53.300;-6.260;2024-03-02T14:04:45;7.87;75.86
71942;DHT22;59997;53.300;-6.260;2024-03-02T14:07:13;8.04;76.90
71942;DHT22;59997;53.300;-6.260;2024-03-02T14:09:39;8.21;75.43
71942;DHT22;59997;53.300;-6.260;2024-03-02T14:12:05;8.21;74.71
71942;DHT22;59997;53.300;-6.260;2024-03-02T14:14:31;7.90;74.81
71942;DHT22;59997;53.300;-6.260;2024-03-02T14:16:57;8.20;76.16
71942;DHT22;59997;53.300;-6.260;2024-03-02T14:19:29;8.41;75.24
71942;DHT22;59997;53.300;-6.260;2024-03-02T14:21:55;8.51;75.30
71942;DHT22;59997;53.300;-6.260;2024-03-02T14:24:21;8.24;75.00
71942;DHT22;59997;53.300;-6.260;2024-03-02T14:26:54;8.11;74.16
71942;DHT22;59997;53.300;-6.260;2024-03-02T14:29:20;8.00;74.97
71942;DHT22;59997;53.300;-6.260;2024-03-02T14:31:45;7.65;76.28
71942;DHT22;59997;53.300;-6.260;2024-03-02T14:34:14;7.40;77.60
71942;DHT22;59997;53.300;-6.260;2024-03-02T14:36:40;7.30;78.92
71942;DHT22;59997;53.300;-6.260;2024-03-02T14:39:08;7.37;79.25
71942;DHT22;59997;53.300;-6.260;2024-03-02T14:41:36;7.71;78.86
71942;DHT22;59997;53.300;-6.260;2024-03-02T14:44:02;8.04;78.68
71942;DHT22;59997;53.300;-6.260;2024-03-02T14:46:28;7.87;76.88
71942;DHT22;59997;53.300;-6.260;2024-03-02T14:48:53;8.02;77.04
71942;DHT22;59997;53.300;-6.260;2024-03-02T14:51:19;8.33;77.46
71942;DHT22;59997;53.300;-6.260;2024-03-02T14:53:45;8.19;78.43
71942;DHT22;59997;53.300;-6.260;2024-03-02T14:56:10;8.31;78.44
71942;DHT22;59997;53.300;-6.260;2024-03-02T14:58:38;8.20;78.01
71942;DHT22;59997;53.300;-6.260;2024-03-02T15:01:04;7.97;79.23
71942;DHT22;59997;53.300;-6.260;2024-03-02T15:03:31;7.62;79.69
71942;DHT22;59997;53.300;-6.260;2024-03-02T15:05:57;7.69;80.31
71942;DHT22;59997;53.300;-6.260;2024-03-02T15:08:23;7.58;80.73
71942;DHT22;59997;53.300;-6.260;2024-03-02T15:10:49;7.40;80.99
71942;DHT22;59997;53.300;-6.260;2024-03-02T15:13:14;7.07;80.45
71942;DHT22;59997;53.300;-6.260;2024-03-02T15:15:40;7.09;81.21
71942;DHT22;59997;53.300;-6.260;2024-03-02T15:18:06;7.16;80.67
71942;DHT22;59997;53.300;-6.260;2024-03-02T15:20:33;7.09;80.60
71942;DHT22;59997;53.300;-6.260;2024-03-02T15:23:00;7.03;80.69
71942;DHT22;59997;53.300;-6.260;2024-03-02T15:25:25;6.91;80.57
71942;DHT22;59997;53.300;-6.260;2024-03-02T15:27:51;6.80;80.88
71942;DHT22;59997;53.300;-6.260;2024-03-02T15:30:16;6.80;81.24
71942;DHT22;59997;53.300;-6.260;2024-03-02T15:32:42;7.05;81.87